aviador You're here:

ETIK Decoded Metar

ILLESHEIM in GERMANY
Report Time2018-07-16 13:56:00
UTC Time2018-07-16 14:03:11
Flight Rules vfr VFR
Wind190° at 03 kt
W.Rank190° ranks 20
Current wind is below 190° avg. (4.3)
Visibility9999 m
Phenomena:N/A
Clouds:Scattered 065 Hf
Expected CloudBase > 6,400 ft AGL from Temp-Dew spread
CeilingNone
Temp26°C (ISA +13)
Dew Point10°C (37% RH)
AAT25.0°C
QNH1013 hPa
Density Alt2,746 ft
Elevation1,066 ft
Report Wrong Elevation
Raw Report
METAR ETIK 161356Z AUTO 19003KT 9999 SCT065 26/10 A2992 RMK AO2 SLP121
T02610103 $=

Extra information for ETIK:More info

Metar Taf Metar & Taf Last 4 Metars F.Rules Stats Wind Profile Meteogram Temp Stats Airport Information Weather charts Add Link Nearby VenuesMetar ALERT Operation Metar Decoded Social comments